Time;durP1;ratioP1;P1;durP2;ratioP2;P2;SDS_P1;SDS_P2;PMS_P1;PMS_P2;Temp;Humidity;BMP_temperature;BMP_pressure;BME280_temperature;BME280_humidity;BME280_pressure;Samples;Min_cycle;Max_cycle;Signal;HPM_P1;HPM_P2
2021/10/30 00:02:01;;;;;;;;;32.75;25.00;;;;;;;;4942246;28;111751;-76
2021/10/30 00:04:26;;;;;;;;;27.50;25.00;;;;;;;;4942251;28;113393;-77
2021/10/30 00:06:52;;;;;;;;;28.25;24.50;;;;;;;;4923467;28;113890;-77
2021/10/30 00:09:17;;;;;;;;;21.25;18.50;;;;;;;;4942859;28;112131;-75
2021/10/30 00:11:43;;;;;;;;;21.25;19.50;;;;;;;;4942825;28;112589;-76
2021/10/30 00:14:08;;;;;;;;;26.00;25.75;;;;;;;;4941798;28;112379;-76
2021/10/30 00:16:34;;;;;;;;;25.50;25.50;;;;;;;;4942529;28;112295;-77
2021/10/30 00:18:59;;;;;;;;;26.75;21.75;;;;;;;;4942072;28;112916;-77
2021/10/30 00:21:24;;;;;;;;;26.00;22.50;;;;;;;;4945335;28;112399;-74
2021/10/30 00:23:49;;;;;;;;;27.75;22.50;;;;;;;;4942623;28;112252;-75
2021/10/30 00:26:15;;;;;;;;;29.00;26.00;;;;;;;;4923370;28;114855;-75
2021/10/30 00:28:40;;;;;;;;;26.50;23.00;;;;;;;;4942294;28;111676;-76
2021/10/30 00:31:05;;;;;;;;;33.00;29.00;;;;;;;;4942417;28;112141;-76
2021/10/30 00:33:31;;;;;;;;;29.00;28.00;;;;;;;;4940676;28;113572;-76
2021/10/30 00:35:56;;;;;;;;;24.00;22.50;;;;;;;;4941702;28;112013;-75
2021/10/30 00:38:22;;;;;;;;;27.25;26.75;;;;;;;;4942238;28;112662;-75
2021/10/30 00:40:47;;;;;;;;;32.50;27.50;;;;;;;;4941392;28;113556;-75
2021/10/30 00:43:12;;;;;;;;;22.75;21.25;;;;;;;;4945961;28;112059;-75
2021/10/30 00:45:38;;;;;;;;;23.25;23.25;;;;;;;;4941318;28;112350;-75
2021/10/30 00:48:03;;;;;;;;;28.25;27.25;;;;;;;;4941992;28;111926;-75
2021/10/30 00:50:28;;;;;;;;;25.75;24.50;;;;;;;;4942093;28;113657;-74
2021/10/30 00:52:54;;;;;;;;;12.25;6.00;;;;;;;;4941225;28;112500;-74
2021/10/30 00:55:21;;;;;;;;;25.25;23.00;;;;;;;;4941230;28;111800;-74
2021/10/30 00:57:47;;;;;;;;;27.50;27.50;;;;;;;;4941822;28;111935;-75
2021/10/30 01:00:13;;;;;;;;;24.25;21.00;;;;;;;;4941394;28;112391;-75
2021/10/30 01:02:38;;;;;;;;;28.25;22.75;;;;;;;;4941988;28;112100;-75
2021/10/30 01:05:04;;;;;;;;;27.25;25.25;;;;;;;;4944673;28;111861;-76
2021/10/30 01:07:31;;;;;;;;;29.75;25.75;;;;;;;;4941315;28;111965;-76
2021/10/30 01:09:56;;;;;;;;;30.00;28.50;;;;;;;;4941858;28;112293;-76
2021/10/30 01:12:22;;;;;;;;;26.00;22.25;;;;;;;;4940986;28;112492;-74
2021/10/30 01:14:47;;;;;;;;;27.75;26.25;;;;;;;;4923989;28;112590;-74
2021/10/30 01:17:12;;;;;;;;;26.00;21.00;;;;;;;;4941747;28;112567;-75
2021/10/30 01:19:38;;;;;;;;;27.25;22.25;;;;;;;;4922557;28;116228;-75
2021/10/30 01:22:04;;;;;;;;;26.50;22.75;;;;;;;;4941270;28;111993;-76
2021/10/30 01:24:30;;;;;;;;;24.75;20.50;;;;;;;;4941036;28;112964;-76
2021/10/30 01:26:55;;;;;;;;;19.75;18.00;;;;;;;;4943253;28;114234;-75
2021/10/30 01:29:20;;;;;;;;;22.25;20.50;;;;;;;;4941091;28;112200;-74
2021/10/30 01:31:48;;;;;;;;;22.00;20.75;;;;;;;;4940289;28;113688;-76
2021/10/30 01:34:14;;;;;;;;;20.75;19.00;;;;;;;;4923581;28;111892;-74
2021/10/30 01:36:39;;;;;;;;;21.50;18.50;;;;;;;;4923238;28;115178;-77
2021/10/30 01:39:05;;;;;;;;;21.25;19.25;;;;;;;;4939983;28;112432;-75
2021/10/30 01:41:31;;;;;;;;;22.00;19.25;;;;;;;;4941516;28;112043;-76
2021/10/30 01:43:56;;;;;;;;;24.75;17.75;;;;;;;;4941611;28;112339;-75
2021/10/30 01:46:22;;;;;;;;;28.75;18.50;;;;;;;;4940111;28;112814;-75
2021/10/30 01:48:47;;;;;;;;;26.25;21.75;;;;;;;;4945009;28;111849;-74
2021/10/30 01:51:13;;;;;;;;;21.25;21.00;;;;;;;;4939562;28;113086;-75
2021/10/30 01:53:39;;;;;;;;;22.50;20.75;;;;;;;;4940634;28;111767;-75
2021/10/30 01:56:04;;;;;;;;;21.25;21.00;;;;;;;;4940822;28;111883;-75
2021/10/30 01:58:30;;;;;;;;;22.00;17.50;;;;;;;;4939247;28;112629;-75
2021/10/30 02:00:56;;;;;;;;;28.25;22.25;;;;;;;;4940636;28;112919;-75
2021/10/30 02:03:23;;;;;;;;;26.00;20.25;;;;;;;;4940808;28;113870;-75
2021/10/30 02:05:49;;;;;;;;;20.00;20.00;;;;;;;;4939079;28;113842;-75
2021/10/30 02:08:14;;;;;;;;;22.33;22.33;;;;;;;;4943884;28;111885;-76
2021/10/30 02:10:40;;;;;;;;;30.00;21.33;;;;;;;;4939744;28;112342;-74
2021/10/30 02:13:05;;;;;;;;;24.67;22.67;;;;;;;;4940893;28;112062;-76
2021/10/30 02:15:30;;;;;;;;;24.00;21.00;;;;;;;;4940952;28;111870;-75
2021/10/30 02:17:55;;;;;;;;;29.00;21.75;;;;;;;;4939722;28;112990;-75
2021/10/30 02:20:22;;;;;;;;;9.50;8.00;;;;;;;;4940686;28;111865;-75
2021/10/30 02:22:51;;;;;;;;;22.25;19.25;;;;;;;;4940867;28;112015;-75
2021/10/30 02:25:17;;;;;;;;;22.75;17.50;;;;;;;;4939547;28;113200;-76
2021/10/30 02:27:42;;;;;;;;;24.00;21.00;;;;;;;;4940078;28;111863;-75
2021/10/30 02:30:08;;;;;;;;;26.50;23.50;;;;;;;;4943094;28;111959;-76
2021/10/30 02:32:34;;;;;;;;;22.25;20.25;;;;;;;;4939995;28;112180;-76
2021/10/30 02:35:00;;;;;;;;;23.50;20.25;;;;;;;;4940433;28;113159;-77
2021/10/30 02:37:25;;;;;;;;;14.25;11.25;;;;;;;;4939612;28;112348;-77
2021/10/30 02:39:50;;;;;;;;;26.50;20.25;;;;;;;;4940329;28;112442;-76
2021/10/30 02:42:16;;;;;;;;;22.25;22.25;;;;;;;;4940685;28;112449;-76
2021/10/30 02:44:41;;;;;;;;;23.25;19.50;;;;;;;;4922148;28;113903;-76
2021/10/30 02:47:06;;;;;;;;;24.00;21.00;;;;;;;;4940232;28;111894;-76
2021/10/30 02:49:32;;;;;;;;;24.00;22.00;;;;;;;;4939616;28;112999;-76
2021/10/30 02:51:58;;;;;;;;;28.33;18.00;;;;;;;;4942578;28;114129;-76
2021/10/30 02:54:24;;;;;;;;;26.25;21.00;;;;;;;;4937727;28;112920;-76
2021/10/30 02:56:49;;;;;;;;;24.33;24.33;;;;;;;;4938527;28;113208;-75
2021/10/30 02:59:14;;;;;;;;;22.00;22.00;;;;;;;;4940282;28;112750;-76
2021/10/30 03:01:39;;;;;;;;;21.75;18.50;;;;;;;;4940350;28;112170;-76
2021/10/30 03:04:05;;;;;;;;;24.00;19.75;;;;;;;;4939014;28;113998;-76
2021/10/30 03:06:31;;;;;;;;;19.50;14.00;;;;;;;;4940166;28;111980;-76
2021/10/30 03:08:57;;;;;;;;;20.75;16.00;;;;;;;;4939590;28;113056;-76
2021/10/30 03:11:22;;;;;;;;;20.75;18.00;;;;;;;;4938557;28;112386;-76
2021/10/30 03:13:47;;;;;;;;;26.00;23.00;;;;;;;;4943726;28;111708;-76
2021/10/30 03:16:13;;;;;;;;;28.67;23.33;;;;;;;;4938717;28;112532;-77
2021/10/30 03:18:38;;;;;;;;;27.00;17.67;;;;;;;;4940371;28;113104;-78
2021/10/30 03:21:04;;;;;;;;;23.00;18.67;;;;;;;;4942848;28;112110;-75
2021/10/30 03:23:29;;;;;;;;;25.67;23.00;;;;;;;;4942371;28;112394;-75
2021/10/30 03:25:55;;;;;;;;;26.00;23.00;;;;;;;;4943212;28;111903;-75
2021/10/30 03:28:20;;;;;;;;;20.00;19.00;;;;;;;;4941559;28;114947;-75
2021/10/30 03:30:46;;;;;;;;;20.33;18.67;;;;;;;;4941952;28;112426;-75
2021/10/30 03:33:11;;;;;;;;;22.67;21.67;;;;;;;;4943078;28;112145;-75
2021/10/30 03:35:37;;;;;;;;;22.67;21.00;;;;;;;;4945757;28;112001;-75
2021/10/30 03:38:02;;;;;;;;;23.67;21.00;;;;;;;;4942574;28;112028;-75
2021/10/30 03:40:28;;;;;;;;;34.67;21.00;;;;;;;;4942975;28;112387;-75
2021/10/30 03:42:53;;;;;;;;;23.00;20.00;;;;;;;;4941799;28;112398;-76
2021/10/30 03:45:18;;;;;;;;;26.33;20.00;;;;;;;;4942859;28;111837;-76
2021/10/30 03:47:44;;;;;;;;;24.33;23.00;;;;;;;;4943397;28;112332;-76
2021/10/30 03:50:09;;;;;;;;;26.00;20.33;;;;;;;;4941780;28;112992;-75
2021/10/30 03:52:34;;;;;;;;;20.67;19.33;;;;;;;;4943080;28;111691;-74
2021/10/30 03:55:00;;;;;;;;;26.00;21.00;;;;;;;;4943111;28;112293;-76
2021/10/30 03:57:25;;;;;;;;;18.33;17.67;;;;;;;;4944937;28;111915;-75
2021/10/30 03:59:51;;;;;;;;;21.00;20.33;;;;;;;;4942706;28;111855;-75
2021/10/30 04:02:16;;;;;;;;;26.33;21.67;;;;;;;;4941921;28;112639;-76
2021/10/30 04:04:42;;;;;;;;;24.33;21.67;;;;;;;;4942558;28;112250;-74
2021/10/30 04:07:08;;;;;;;;;27.67;23.33;;;;;;;;4942252;28;111889;-76
2021/10/30 04:09:34;;;;;;;;;21.00;20.00;;;;;;;;4941729;28;114276;-77
2021/10/30 04:11:59;;;;;;;;;27.33;20.67;;;;;;;;4942564;28;111923;-76
2021/10/30 04:14:24;;;;;;;;;20.00;20.00;;;;;;;;4942712;28;112074;-76
2021/10/30 04:16:50;;;;;;;;;23.33;18.67;;;;;;;;4945482;28;112435;-76
2021/10/30 04:19:15;;;;;;;;;20.00;17.33;;;;;;;;4942253;28;112804;-75
2021/10/30 04:21:41;;;;;;;;;24.00;18.67;;;;;;;;4941332;28;112391;-75
2021/10/30 04:24:07;;;;;;;;;24.33;21.00;;;;;;;;4942107;28;112075;-75
2021/10/30 04:26:32;;;;;;;;;18.67;15.67;;;;;;;;4941564;28;112070;-74
2021/10/30 04:28:58;;;;;;;;;27.33;22.00;;;;;;;;4940950;28;112694;-75
2021/10/30 04:31:26;;;;;;;;;21.00;18.67;;;;;;;;4942981;28;112182;-75
2021/10/30 04:33:53;;;;;;;;;24.00;21.33;;;;;;;;4942320;28;112254;-74
2021/10/30 04:36:19;;;;;;;;;27.67;23.00;;;;;;;;4941476;28;112915;-74
2021/10/30 04:38:45;;;;;;;;;25.00;21.67;;;;;;;;4945819;28;112051;-73
2021/10/30 04:41:10;;;;;;;;;29.33;24.67;;;;;;;;4941251;28;112540;-76
2021/10/30 04:43:36;;;;;;;;;20.67;15.00;;;;;;;;4942217;28;111855;-77
2021/10/30 04:46:01;;;;;;;;;20.33;16.33;;;;;;;;4941718;28;112653;-78
2021/10/30 04:48:26;;;;;;;;;24.33;18.33;;;;;;;;4930065;28;112402;-77
2021/10/30 04:50:51;;;;;;;;;19.33;19.00;;;;;;;;4919679;28;112981;-79
2021/10/30 04:53:17;;;;;;;;;22.67;22.00;;;;;;;;4922362;28;112114;-78
2021/10/30 04:55:42;;;;;;;;;25.33;20.00;;;;;;;;4920673;28;113663;-79
2021/10/30 04:58:07;;;;;;;;;27.33;23.00;;;;;;;;4904395;28;111959;-78
2021/10/30 05:00:33;;;;;;;;;25.00;23.33;;;;;;;;4924874;28;112154;-78
2021/10/30 05:02:58;;;;;;;;;28.00;23.00;;;;;;;;4904833;28;112149;-78
2021/10/30 05:05:23;;;;;;;;;21.00;20.33;;;;;;;;4904950;28;114968;-77
2021/10/30 05:07:49;;;;;;;;;28.00;25.00;;;;;;;;4921644;28;112388;-76
2021/10/30 05:10:14;;;;;;;;;26.00;23.33;;;;;;;;4917314;28;112299;-79
2021/10/30 05:12:39;;;;;;;;;23.00;20.67;;;;;;;;4904780;28;113278;-74
2021/10/30 05:15:05;;;;;;;;;28.00;24.33;;;;;;;;4903713;28;114449;-75
2021/10/30 05:17:30;;;;;;;;;26.00;22.67;;;;;;;;4921967;28;112078;-76
2021/10/30 05:19:56;;;;;;;;;38.67;28.00;;;;;;;;4904116;28;113722;-75
2021/10/30 05:22:21;;;;;;;;;17.00;16.00;;;;;;;;4924684;28;113520;-75
2021/10/30 05:24:47;;;;;;;;;24.67;19.67;;;;;;;;4922187;28;112353;-74
2021/10/30 05:27:12;;;;;;;;;25.33;22.67;;;;;;;;4920506;28;112831;-75
2021/10/30 05:29:38;;;;;;;;;21.33;21.33;;;;;;;;4922439;28;112251;-74
2021/10/30 05:32:03;;;;;;;;;27.00;25.33;;;;;;;;4922455;28;112779;-76
2021/10/30 05:34:28;;;;;;;;;22.00;14.67;;;;;;;;4921542;28;112472;-79
2021/10/30 05:36:54;;;;;;;;;24.33;22.00;;;;;;;;4922202;28;111812;-78
2021/10/30 05:39:21;;;;;;;;;23.00;20.00;;;;;;;;4921821;28;113302;-78
2021/10/30 05:41:46;;;;;;;;;26.00;20.00;;;;;;;;4918718;28;112768;-78
2021/10/30 05:44:12;;;;;;;;;21.00;20.67;;;;;;;;4914678;28;113514;-79
2021/10/30 05:46:37;;;;;;;;;26.67;25.67;;;;;;;;4920502;28;112442;-79
2021/10/30 05:49:04;;;;;;;;;26.00;22.33;;;;;;;;4921365;28;111997;-79
2021/10/30 05:51:30;;;;;;;;;22.00;20.00;;;;;;;;4921649;28;112058;-81
2021/10/30 05:53:55;;;;;;;;;25.67;23.00;;;;;;;;4918898;28;113795;-77
2021/10/30 05:56:21;;;;;;;;;32.33;25.00;;;;;;;;4920904;28;112221;-77
2021/10/30 05:58:46;;;;;;;;;26.00;22.00;;;;;;;;4920985;28;112174;-78
2021/10/30 06:01:11;;;;;;;;;30.00;26.33;;;;;;;;4920124;28;112785;-76
2021/10/30 06:03:36;;;;;;;;;29.00;19.67;;;;;;;;4925327;28;112047;-75
2021/10/30 06:06:02;;;;;;;;;24.67;23.67;;;;;;;;4920117;28;112284;-75
2021/10/30 06:08:27;;;;;;;;;28.00;23.33;;;;;;;;4921073;28;112081;-78
2021/10/30 06:10:53;;;;;;;;;26.00;21.33;;;;;;;;4921045;28;111839;-78
2021/10/30 06:13:19;;;;;;;;;26.33;25.00;;;;;;;;4920907;28;112465;-79
2021/10/30 06:15:44;;;;;;;;;29.33;23.00;;;;;;;;4921634;28;111997;-79
2021/10/30 06:18:09;;;;;;;;;25.33;20.00;;;;;;;;4921215;28;112087;-75
2021/10/30 06:20:35;;;;;;;;;24.67;22.33;;;;;;;;4920811;28;112502;-76
2021/10/30 06:23:02;;;;;;;;;27.67;24.00;;;;;;;;4921739;28;111901;-76
2021/10/30 06:25:27;;;;;;;;;35.33;24.33;;;;;;;;4923928;28;112452;-81
2021/10/30 06:27:52;;;;;;;;;27.00;21.00;;;;;;;;4934869;28;112055;-71
2021/10/30 06:30:18;;;;;;;;;26.00;24.67;;;;;;;;4940432;28;112466;-71
2021/10/30 06:32:43;;;;;;;;;34.33;27.00;;;;;;;;4935990;28;113164;-71
2021/10/30 06:35:09;;;;;;;;;39.00;32.33;;;;;;;;4940568;28;112398;-72
2021/10/30 06:37:38;;;;;;;;;25.00;23.67;;;;;;;;4922214;28;113424;-72
2021/10/30 06:40:03;;;;;;;;;27.33;23.33;;;;;;;;4939368;28;112776;-71
2021/10/30 06:42:28;;;;;;;;;32.33;25.33;;;;;;;;4940697;28;112179;-76
2021/10/30 06:44:56;;;;;;;;;38.33;31.67;;;;;;;;4940388;28;111967;-73
2021/10/30 06:47:22;;;;;;;;;29.33;26.67;;;;;;;;4943681;28;112828;-74
2021/10/30 06:49:47;;;;;;;;;34.33;26.00;;;;;;;;4940356;28;112863;-73
2021/10/30 06:52:12;;;;;;;;;29.33;26.33;;;;;;;;4940114;28;114294;-74
2021/10/30 06:54:38;;;;;;;;;27.67;26.33;;;;;;;;4925967;28;111865;-70
2021/10/30 06:57:08;;;;;;;;;27.00;25.67;;;;;;;;4944023;28;112091;-73
2021/10/30 06:59:34;;;;;;;;;38.33;35.00;;;;;;;;4942526;28;113612;-78
2021/10/30 07:01:59;;;;;;;;;33.00;26.00;;;;;;;;4943946;28;111741;-74
2021/10/30 07:04:24;;;;;;;;;24.33;21.67;;;;;;;;4943696;28;111994;-76
2021/10/30 07:06:51;;;;;;;;;38.33;29.67;;;;;;;;4942335;28;112336;-74
2021/10/30 07:09:16;;;;;;;;;41.33;33.33;;;;;;;;4946832;28;111919;-77
2021/10/30 07:11:44;;;;;;;;;35.00;31.33;;;;;;;;4942804;28;112451;-74
2021/10/30 07:14:09;;;;;;;;;36.33;34.67;;;;;;;;4944016;28;111862;-77
2021/10/30 07:16:35;;;;;;;;;34.33;30.67;;;;;;;;4925831;28;112143;-80
2021/10/30 07:19:00;;;;;;;;;35.33;30.67;;;;;;;;4921288;28;112592;-75
2021/10/30 07:21:25;;;;;;;;;39.33;34.67;;;;;;;;4924161;28;111868;-71
2021/10/30 07:23:52;;;;;;;;;33.67;33.00;;;;;;;;4923779;28;112317;-71
2021/10/30 07:26:17;;;;;;;;;44.00;34.00;;;;;;;;4918665;28;114270;-72
2021/10/30 07:28:42;;;;;;;;;38.75;31.00;;;;;;;;4921197;28;111875;-74
2021/10/30 07:31:07;;;;;;;;;32.00;30.75;;;;;;;;4924355;28;112245;-72
2021/10/30 07:33:33;;;;;;;;;32.75;29.50;;;;;;;;4921631;28;112309;-72
2021/10/30 07:35:58;;;;;;;;;31.00;31.00;;;;;;;;4921729;28;112508;-73
2021/10/30 07:38:24;;;;;;;;;34.50;32.00;;;;;;;;4921149;28;112443;-71
2021/10/30 07:40:50;;;;;;;;;37.75;32.25;;;;;;;;4922501;28;112202;-72
2021/10/30 07:43:15;;;;;;;;;33.00;31.25;;;;;;;;4922271;28;112945;-72
2021/10/30 07:45:41;;;;;;;;;30.75;29.50;;;;;;;;4921838;28;113336;-71
2021/10/30 07:48:08;;;;;;;;;35.00;33.50;;;;;;;;4921440;28;111984;-76
2021/10/30 07:50:34;;;;;;;;;32.75;29.75;;;;;;;;4922635;28;111875;-72
2021/10/30 07:52:59;;;;;;;;;38.00;33.75;;;;;;;;4924533;28;112579;-72
2021/10/30 07:55:25;;;;;;;;;38.75;31.25;;;;;;;;4916843;28;113264;-72
2021/10/30 07:57:50;;;;;;;;;37.00;36.00;;;;;;;;4920219;28;112077;-72
2021/10/30 08:00:15;;;;;;;;;37.75;35.00;;;;;;;;4904280;28;112718;-72
2021/10/30 08:02:42;;;;;;;;;30.75;29.00;;;;;;;;4921372;28;112130;-72
2021/10/30 08:05:07;;;;;;;;;30.00;24.25;;;;;;;;4919445;28;112955;-73
2021/10/30 08:07:33;;;;;;;;;48.00;35.75;;;;;;;;4904712;28;111997;-73
2021/10/30 08:09:59;;;;;;;;;48.00;39.00;;;;;;;;4914090;28;113617;-72
2021/10/30 08:12:24;;;;;;;;;40.75;36.50;;;;;;;;4921120;28;112483;-72
2021/10/30 08:14:50;;;;;;;;;38.75;35.75;;;;;;;;4921685;28;111920;-72
2021/10/30 08:17:15;;;;;;;;;40.25;36.75;;;;;;;;4920780;28;113065;-70
2021/10/30 08:19:40;;;;;;;;;43.50;39.50;;;;;;;;4922154;28;112316;-74
2021/10/30 08:22:05;;;;;;;;;41.75;35.75;;;;;;;;4922950;28;112227;-73
2021/10/30 08:24:31;;;;;;;;;41.50;35.00;;;;;;;;4922049;28;112944;-81
2021/10/30 08:26:56;;;;;;;;;40.50;37.00;;;;;;;;4922240;28;112824;-76
2021/10/30 08:29:22;;;;;;;;;42.50;36.25;;;;;;;;4923071;28;112039;-80
2021/10/30 08:31:47;;;;;;;;;42.00;36.75;;;;;;;;4922020;28;112966;-79
2021/10/30 08:34:12;;;;;;;;;46.00;38.25;;;;;;;;4924504;28;112202;-78
2021/10/30 08:36:38;;;;;;;;;42.50;37.00;;;;;;;;4920955;28;112420;-72
2021/10/30 08:39:03;;;;;;;;;44.00;37.00;;;;;;;;4922267;28;111960;-75
2021/10/30 08:41:31;;;;;;;;;43.00;39.00;;;;;;;;4922986;28;112003;-75
2021/10/30 08:43:56;;;;;;;;;48.33;40.00;;;;;;;;4921891;28;113661;-79
2021/10/30 08:46:22;;;;;;;;;42.67;38.00;;;;;;;;4922518;28;112379;-73
2021/10/30 08:48:47;;;;;;;;;49.33;38.00;;;;;;;;4922479;28;112635;-75
2021/10/30 08:51:13;;;;;;;;;45.00;39.00;;;;;;;;4921672;28;113029;-73
2021/10/30 08:53:39;;;;;;;;;52.33;43.67;;;;;;;;4921926;28;112178;-79
2021/10/30 08:56:05;;;;;;;;;52.33;40.67;;;;;;;;4925159;28;112094;-80
2021/10/30 08:58:30;;;;;;;;;51.67;40.00;;;;;;;;4922564;28;111978;-74
2021/10/30 09:00:58;;;;;;;;;48.00;39.00;;;;;;;;4922482;28;112586;-72
2021/10/30 09:03:23;;;;;;;;;47.50;39.00;;;;;;;;4921368;28;112425;-72
2021/10/30 09:05:50;;;;;;;;;50.33;37.67;;;;;;;;4917935;28;112311;-72
2021/10/30 09:08:17;;;;;;;;;47.00;40.00;;;;;;;;4911134;28;112950;-77
2021/10/30 09:10:43;;;;;;;;;41.67;37.00;;;;;;;;4909295;28;113736;-72
2021/10/30 09:13:10;;;;;;;;;45.00;38.67;;;;;;;;4910205;28;112233;-73
2021/10/30 09:15:46;;;;;;;;;45.00;38.67;;;;;;;;4912816;28;112633;-73
2021/10/30 09:18:20;;;;;;;;;42.00;38.67;;;;;;;;4912974;28;113799;-72
2021/10/30 09:20:48;;;;;;;;;44.75;37.00;;;;;;;;4910663;28;112971;-73
2021/10/30 09:23:17;;;;;;;;;40.33;34.67;;;;;;;;4909918;28;113927;-72
2021/10/30 09:25:56;;;;;;;;;47.33;38.33;;;;;;;;4912019;28;113053;-73
2021/10/30 09:28:22;;;;;;;;;47.25;37.50;;;;;;;;4912181;28;112087;-74
2021/10/30 09:30:54;;;;;;;;;39.75;37.25;;;;;;;;4911382;28;112419;-73
2021/10/30 09:33:19;;;;;;;;;41.50;37.25;;;;;;;;4911415;28;112088;-74
2021/10/30 09:35:46;;;;;;;;;42.25;36.25;;;;;;;;4909667;28;111774;-72
2021/10/30 09:38:12;;;;;;;;;41.00;36.25;;;;;;;;4893026;28;113040;-70
2021/10/30 09:40:37;;;;;;;;;42.33;37.00;;;;;;;;4921174;28;111890;-71
2021/10/30 09:43:19;;;;;;;;;35.75;30.75;;;;;;;;4921211;28;112671;-71
2021/10/30 09:45:52;;;;;;;;;42.00;36.50;;;;;;;;4922165;28;111989;-71
2021/10/30 09:48:22;;;;;;;;;42.50;36.75;;;;;;;;4922175;28;112421;-72
2021/10/30 09:50:47;;;;;;;;;43.75;37.75;;;;;;;;4920975;28;113785;-78
2021/10/30 09:53:22;;;;;;;;;39.00;34.50;;;;;;;;4922246;28;112028;-76
2021/10/30 09:55:54;;;;;;;;;37.25;33.25;;;;;;;;4922596;28;112024;-75
2021/10/30 09:58:31;;;;;;;;;41.25;36.25;;;;;;;;4920594;28;112433;-75
2021/10/30 10:01:01;;;;;;;;;36.50;33.25;;;;;;;;4921516;28;112393;-81
2021/10/30 10:03:27;;;;;;;;;37.50;33.25;;;;;;;;4920485;28;113057;-74
2021/10/30 10:05:53;;;;;;;;;28.75;28.25;;;;;;;;4910734;28;113044;-76
2021/10/30 10:08:19;;;;;;;;;27.75;24.25;;;;;;;;4911027;28;112748;-74
2021/10/30 10:10:44;;;;;;;;;31.75;27.75;;;;;;;;4908630;28;113030;-76
2021/10/30 10:13:10;;;;;;;;;35.75;30.50;;;;;;;;4911122;28;111819;-74
2021/10/30 10:15:39;;;;;;;;;27.50;26.00;;;;;;;;4909554;28;112373;-75
2021/10/30 10:18:05;;;;;;;;;30.50;27.00;;;;;;;;4908118;28;113615;-73
2021/10/30 10:20:30;;;;;;;;;26.00;22.50;;;;;;;;4887978;28;112723;-73
2021/10/30 10:22:56;;;;;;;;;28.75;27.75;;;;;;;;4910374;28;112384;-73
2021/10/30 10:25:31;;;;;;;;;29.50;25.50;;;;;;;;4907348;28;112358;-74
2021/10/30 10:28:23;;;;;;;;;26.50;20.50;;;;;;;;4890401;28;115254;-73
2021/10/30 10:30:56;;;;;;;;;29.25;22.00;;;;;;;;4901112;28;112503;-73
2021/10/30 10:33:21;;;;;;;;;23.50;21.25;;;;;;;;4905531;28;111897;-73
2021/10/30 10:36:05;;;;;;;;;21.25;20.50;;;;;;;;4905333;28;112986;-74
2021/10/30 10:38:48;;;;;;;;;21.00;19.50;;;;;;;;4914552;28;112827;-72
2021/10/30 10:41:32;;;;;;;;;21.00;19.50;;;;;;;;4925107;28;111931;-73
2021/10/30 10:43:57;;;;;;;;;24.25;22.25;;;;;;;;4924655;28;112801;-71
2021/10/30 10:46:23;;;;;;;;;25.00;19.75;;;;;;;;4927610;28;112607;-74
2021/10/30 10:48:50;;;;;;;;;20.00;18.75;;;;;;;;4924364;28;112005;-72
2021/10/30 10:51:21;;;;;;;;;21.25;18.75;;;;;;;;4923218;28;113084;-69
2021/10/30 10:53:56;;;;;;;;;20.75;20.00;;;;;;;;4924594;28;111925;-73
2021/10/30 10:56:21;;;;;;;;;24.00;22.00;;;;;;;;4924689;28;113858;-76
2021/10/30 10:59:17;;;;;;;;;24.50;22.75;;;;;;;;4923802;28;112930;-74
2021/10/30 11:02:01;;;;;;;;;21.00;17.75;;;;;;;;4919278;28;113894;-74
2021/10/30 11:04:26;;;;;;;;;19.50;17.00;;;;;;;;4923387;28;112894;-75
2021/10/30 11:07:10;;;;;;;;;19.50;18.50;;;;;;;;4924138;28;112978;-74
2021/10/30 11:09:45;;;;;;;;;20.75;16.25;;;;;;;;4927603;28;111903;-74
2021/10/30 11:12:24;;;;;;;;;22.00;19.25;;;;;;;;4923143;28;112565;-74
2021/10/30 11:15:08;;;;;;;;;21.50;19.25;;;;;;;;4924304;28;112330;-74
2021/10/30 11:17:46;;;;;;;;;20.25;14.75;;;;;;;;4922909;28;112220;-72
2021/10/30 11:20:15;;;;;;;;;21.00;19.00;;;;;;;;4921757;28;113855;-74
2021/10/30 11:22:54;;;;;;;;;24.00;22.25;;;;;;;;4922797;28;112169;-72
2021/10/30 11:25:20;;;;;;;;;25.75;21.50;;;;;;;;4923124;28;111867;-73
2021/10/30 11:27:49;;;;;;;;;19.50;16.50;;;;;;;;4921690;28;112509;-75
2021/10/30 11:30:14;;;;;;;;;26.50;19.00;;;;;;;;4921580;28;111905;-74
2021/10/30 11:32:40;;;;;;;;;18.00;15.50;;;;;;;;4925951;28;111786;-74
2021/10/30 11:35:10;;;;;;;;;16.50;16.25;;;;;;;;4922992;28;111772;-75
2021/10/30 11:37:39;;;;;;;;;28.75;21.25;;;;;;;;4922977;28;112023;-74
2021/10/30 11:40:05;;;;;;;;;22.75;12.00;;;;;;;;4935769;28;115818;-73
2021/10/30 11:42:31;;;;;;;;;17.75;13.00;;;;;;;;4921946;28;112140;-73
2021/10/30 11:44:56;;;;;;;;;22.25;19.75;;;;;;;;4922827;28;112000;-74
2021/10/30 11:47:29;;;;;;;;;19.00;17.50;;;;;;;;4920971;28;112498;-73
2021/10/30 11:49:55;;;;;;;;;20.75;18.50;;;;;;;;4921287;28;111883;-74
2021/10/30 11:52:21;;;;;;;;;20.50;18.25;;;;;;;;4901142;28;114731;-73
2021/10/30 11:54:46;;;;;;;;;21.00;17.50;;;;;;;;4924941;28;112327;-75
2021/10/30 11:57:12;;;;;;;;;20.00;18.00;;;;;;;;4914130;28;112693;-74
2021/10/30 11:59:44;;;;;;;;;19.75;17.00;;;;;;;;4921442;28;112974;-76
2021/10/30 12:02:13;;;;;;;;;23.00;22.50;;;;;;;;4936973;28;111980;-74
2021/10/30 12:04:39;;;;;;;;;29.25;24.25;;;;;;;;4921771;28;113696;-74
2021/10/30 12:07:05;;;;;;;;;23.50;19.00;;;;;;;;4920960;28;112367;-72
2021/10/30 12:09:35;;;;;;;;;20.25;15.75;;;;;;;;4922111;28;112090;-72
2021/10/30 12:12:18;;;;;;;;;23.75;21.50;;;;;;;;4921416;28;113176;-74
2021/10/30 12:14:45;;;;;;;;;21.75;18.50;;;;;;;;4914235;28;112614;-72
2021/10/30 12:17:12;;;;;;;;;20.00;18.00;;;;;;;;4914435;28;112211;-73
2021/10/30 12:19:38;;;;;;;;;16.50;16.50;;;;;;;;4910804;28;114009;-72
2021/10/30 12:22:06;;;;;;;;;20.00;18.00;;;;;;;;4909144;28;112558;-74
2021/10/30 12:24:32;;;;;;;;;21.50;17.25;;;;;;;;4907590;28;112092;-72
2021/10/30 12:26:59;;;;;;;;;19.75;18.25;;;;;;;;4909609;28;113570;-71
2021/10/30 12:29:28;;;;;;;;;21.50;19.50;;;;;;;;4901326;28;112000;-72
2021/10/30 12:32:00;;;;;;;;;18.50;18.50;;;;;;;;4905045;28;113291;-72
2021/10/30 12:34:25;;;;;;;;;24.75;18.75;;;;;;;;4920893;28;112987;-72
2021/10/30 12:36:52;;;;;;;;;12.25;12.25;;;;;;;;4925745;28;111746;-70
2021/10/30 12:39:21;;;;;;;;;13.00;12.25;;;;;;;;4920891;28;113223;-72
2021/10/30 12:41:54;;;;;;;;;15.25;12.00;;;;;;;;4921032;28;111908;-72
2021/10/30 12:44:30;;;;;;;;;12.75;12.50;;;;;;;;4921509;28;112011;-72
2021/10/30 12:46:56;;;;;;;;;14.50;13.00;;;;;;;;4913131;28;112616;-73
2021/10/30 12:49:26;;;;;;;;;17.00;12.25;;;;;;;;4917714;28;112951;-72
2021/10/30 12:51:55;;;;;;;;;18.25;17.25;;;;;;;;4902442;28;112260;-72
2021/10/30 12:54:25;;;;;;;;;21.25;13.50;;;;;;;;4920420;28;113725;-72
2021/10/30 12:56:50;;;;;;;;;13.50;11.75;;;;;;;;4921196;28;112096;-73
2021/10/30 12:59:15;;;;;;;;;11.00;11.00;;;;;;;;4923414;28;112419;-72
2021/10/30 13:01:48;;;;;;;;;13.75;13.75;;;;;;;;4919098;28;111770;-70
2021/10/30 13:04:13;;;;;;;;;15.50;14.25;;;;;;;;4920564;28;112326;-72
2021/10/30 13:06:43;;;;;;;;;10.75;10.75;;;;;;;;4919567;28;112461;-71
2021/10/30 13:09:09;;;;;;;;;14.50;12.25;;;;;;;;4920953;28;111875;-70
2021/10/30 13:11:35;;;;;;;;;16.50;12.00;;;;;;;;4921582;28;111944;-71
2021/10/30 13:14:00;;;;;;;;;11.25;9.75;;;;;;;;4920334;28;113773;-75
2021/10/30 13:16:26;;;;;;;;;14.00;12.00;;;;;;;;4919745;28;112291;-71
2021/10/30 13:18:51;;;;;;;;;14.00;14.00;;;;;;;;4903321;28;115562;-71
2021/10/30 13:21:21;;;;;;;;;14.00;11.75;;;;;;;;4923982;28;112591;-72
2021/10/30 13:23:47;;;;;;;;;16.75;14.50;;;;;;;;4920708;28;112164;-70
2021/10/30 13:26:13;;;;;;;;;12.00;10.00;;;;;;;;4920694;28;112613;-71
2021/10/30 13:28:39;;;;;;;;;12.00;10.50;;;;;;;;4940068;28;111993;-71
2021/10/30 13:31:04;;;;;;;;;11.00;10.25;;;;;;;;4940166;28;113147;-71
2021/10/30 13:33:30;;;;;;;;;12.00;10.75;;;;;;;;4932219;28;112679;-71
2021/10/30 13:35:55;;;;;;;;;10.50;9.75;;;;;;;;4939878;28;111996;-71
2021/10/30 13:38:20;;;;;;;;;14.00;13.50;;;;;;;;4940050;28;113044;-72
2021/10/30 13:40:46;;;;;;;;;15.00;12.50;;;;;;;;4939716;28;112471;-71
2021/10/30 13:43:11;;;;;;;;;11.25;10.25;;;;;;;;4926347;28;112187;-71
2021/10/30 13:45:36;;;;;;;;;13.00;10.00;;;;;;;;4939731;28;112375;-71
2021/10/30 13:48:02;;;;;;;;;17.25;11.00;;;;;;;;4940083;28;111969;-71
2021/10/30 13:50:29;;;;;;;;;12.00;11.00;;;;;;;;4939950;28;112087;-72
2021/10/30 13:52:55;;;;;;;;;14.50;11.00;;;;;;;;4938981;28;112402;-71
2021/10/30 13:55:21;;;;;;;;;15.00;11.25;;;;;;;;4939850;28;111961;-71
2021/10/30 13:57:46;;;;;;;;;12.50;11.00;;;;;;;;4940110;28;112257;-71
2021/10/30 14:00:12;;;;;;;;;10.25;9.75;;;;;;;;4938966;28;113765;-71
2021/10/30 14:02:37;;;;;;;;;9.25;9.25;;;;;;;;4939485;28;111936;-69